Time;durP1;ratioP1;P1;durP2;ratioP2;P2;SDS_P1;SDS_P2;PMS_P1;PMS_P2;Temp;Humidity;BMP_temperature;BMP_pressure;BME280_temperature;BME280_humidity;BME280_pressure;Samples;Min_cycle;Max_cycle;Signal;HPM_P1;HPM_P2
2022/05/20 00:01:21;;;;;;;5.68;2.13;;;;;;;20.45;56.25;101589.91;5204728;28;20060;-79
2022/05/20 00:03:54;;;;;;;1.73;1.63;;;;;;;20.45;56.19;101593.44;5184714;28;20060;-80
2022/05/20 00:06:24;;;;;;;2.17;1.63;;;;;;;20.43;56.71;101589.13;5199080;28;20026;-79
2022/05/20 00:08:55;;;;;;;0.98;0.93;;;;;;;20.41;56.20;101594.56;5176353;28;20087;-79
2022/05/20 00:11:25;;;;;;;1.80;1.70;;;;;;;20.35;56.35;101594.91;5209222;28;20064;-79
2022/05/20 00:13:56;;;;;;;2.80;1.92;;;;;;;20.36;56.01;101598.41;5196206;28;20029;-79
2022/05/20 00:16:27;;;;;;;2.08;1.65;;;;;;;20.30;56.21;101599.59;5197481;28;20186;-82
2022/05/20 00:18:57;;;;;;;1.48;1.30;;;;;;;20.29;56.25;101597.88;5195310;28;20029;-79
2022/05/20 00:21:28;;;;;;;3.65;1.88;;;;;;;20.29;56.18;101601.41;5181475;28;20018;-79
2022/05/20 00:23:59;;;;;;;1.88;1.75;;;;;;;20.28;56.16;101601.50;5197184;28;20108;-79
2022/05/20 00:26:30;;;;;;;1.90;1.80;;;;;;;20.33;56.42;101612.78;5193275;28;20116;-79
2022/05/20 00:29:03;;;;;;;2.03;1.92;;;;;;;20.28;57.30;101606.84;5195950;28;20049;-79
2022/05/20 00:31:34;;;;;;;1.65;1.35;;;;;;;20.26;56.47;101598.91;5173024;28;20320;-79
2022/05/20 00:34:04;;;;;;;2.38;1.80;;;;;;;20.23;56.61;101607.09;5196434;28;20029;-79
2022/05/20 00:36:36;;;;;;;2.20;1.70;;;;;;;20.26;56.97;101598.91;5198192;28;20048;-79
2022/05/20 00:39:07;;;;;;;21.50;3.58;;;;;;;20.20;56.66;101604.56;5170341;28;20083;-79
2022/05/20 00:41:39;;;;;;;2.70;1.45;;;;;;;20.18;56.59;101606.44;5180927;28;20056;-79
2022/05/20 00:44:09;;;;;;;3.50;2.08;;;;;;;20.15;56.27;101611.09;5166496;28;20045;-78
2022/05/20 00:46:39;;;;;;;1.13;1.10;;;;;;;20.10;56.53;101606.88;5194099;28;20070;-78
2022/05/20 00:49:14;;;;;;;10.05;2.47;;;;;;;20.12;56.29;101610.31;5195781;28;20071;-78
2022/05/20 00:51:50;;;;;;;1.00;1.00;;;;;;;20.07;56.26;101615.03;5220201;28;20048;-78
2022/05/20 00:54:27;;;;;;;1.15;1.05;;;;;;;20.09;56.52;101596.28;5220752;28;20037;-79
2022/05/20 00:57:06;;;;;;;2.72;1.75;;;;;;;20.12;57.51;101601.47;5173359;28;20582;-79
2022/05/20 00:59:41;;;;;;;2.55;1.75;;;;;;;20.03;57.54;101605.50;5176105;28;20045;-79
2022/05/20 01:02:19;;;;;;;2.25;2.08;;;;;;;19.99;57.20;101606.56;5206128;28;20165;-79
2022/05/20 01:04:50;;;;;;;1.05;1.05;;;;;;;19.98;56.59;101607.50;5185117;28;20094;-79
2022/05/20 01:07:20;;;;;;;2.35;2.13;;;;;;;19.98;56.79;101607.50;5201244;28;20113;-78
2022/05/20 01:09:51;;;;;;;5.00;2.05;;;;;;;19.99;56.91;101601.25;5169454;28;20041;-79
2022/05/20 01:12:24;;;;;;;3.08;2.72;;;;;;;19.91;56.61;101600.78;5176199;28;20021;-80
2022/05/20 01:14:55;;;;;;;4.03;2.28;;;;;;;19.95;56.85;101589.06;5193774;28;20183;-79
2022/05/20 01:17:27;;;;;;;3.78;3.22;;;;;;;19.90;56.64;101588.41;5175086;28;20179;-78
2022/05/20 01:19:58;;;;;;;1.65;1.55;;;;;;;19.82;57.83;101589.66;5177289;28;20049;-79
2022/05/20 01:22:40;;;;;;;1.85;1.75;;;;;;;19.85;56.91;101574.50;5196275;28;20056;-79
2022/05/20 01:25:11;;;;;;;1.70;1.60;;;;;;;19.82;56.89;101578.16;5196483;28;20037;-79
2022/05/20 01:27:46;;;;;;;4.00;1.88;;;;;;;19.80;57.63;101572.03;5195970;28;20026;-79
2022/05/20 01:30:20;;;;;;;2.15;1.77;;;;;;;19.78;56.86;101579.25;5196337;28;20048;-79
2022/05/20 01:32:51;;;;;;;1.70;1.33;;;;;;;19.80;56.77;101570.22;5180501;28;20514;-79
2022/05/20 01:35:31;;;;;;;3.67;2.28;;;;;;;19.78;56.81;101566.81;5191413;28;20303;-78
2022/05/20 01:38:06;;;;;;;3.60;1.70;;;;;;;19.72;57.02;101556.47;5195437;28;20045;-79
2022/05/20 01:41:00;;;;;;;3.08;2.53;;;;;;;19.66;57.52;101551.47;5179092;28;20038;-79
2022/05/20 01:43:36;;;;;;;1.38;1.30;;;;;;;19.70;56.83;101552.16;5161614;28;20091;-79
2022/05/20 01:46:13;;;;;;;16.00;2.78;;;;;;;19.66;56.77;101560.31;5194255;28;20679;-79
2022/05/20 01:48:56;;;;;;;2.47;2.03;;;;;;;19.64;56.53;101558.66;5176959;28;20038;-79
2022/05/20 01:51:32;;;;;;;1.45;1.35;;;;;;;19.60;56.78;101563.28;5194845;28;20578;-79
2022/05/20 01:54:10;;;;;;;1.85;1.75;;;;;;;19.61;57.06;101558.84;5175180;28;20480;-79
2022/05/20 01:56:48;;;;;;;3.20;2.92;;;;;;;19.57;56.68;101557.25;5195318;28;20374;-78
2022/05/20 01:59:31;;;;;;;2.92;1.90;;;;;;;19.56;57.03;101551.09;5191524;28;20353;-79
2022/05/20 02:02:24;;;;;;;1.70;1.60;;;;;;;19.53;56.91;101555.72;5190701;28;20033;-78
2022/05/20 02:05:41;;;;;;;2.10;1.90;;;;;;;19.52;56.97;101551.31;5207993;28;20065;-79
2022/05/20 02:08:22;;;;;;;6.43;2.97;;;;;;;19.47;56.81;101546.22;5170774;28;20278;-79
2022/05/20 02:10:58;;;;;;;1.95;1.55;;;;;;;19.42;56.82;101548.28;5190601;28;20097;-78
2022/05/20 02:13:34;;;;;;;4.35;2.13;;;;;;;19.39;56.67;101543.09;5189194;28;20116;-79
2022/05/20 02:16:12;;;;;;;2.72;2.25;;;;;;;19.39;56.98;101546.63;5195151;28;20132;-79
2022/05/20 02:18:49;;;;;;;1.38;1.25;;;;;;;19.36;56.93;101549.44;5175456;28;20033;-78
2022/05/20 02:21:24;;;;;;;4.05;2.63;;;;;;;19.37;57.24;101545.84;5173349;28;20033;-79
2022/05/20 02:23:59;;;;;;;3.40;1.75;;;;;;;19.28;56.82;101546.31;5216226;28;20041;-79
2022/05/20 02:26:37;;;;;;;3.90;3.33;;;;;;;19.30;56.99;101549.75;5215900;28;20040;-79
2022/05/20 02:29:14;;;;;;;3.47;3.15;;;;;;;19.25;56.90;101552.66;5207845;28;20044;-78
2022/05/20 02:31:55;;;;;;;2.58;2.33;;;;;;;19.20;56.94;101541.38;5166117;28;20033;-78
2022/05/20 02:34:26;;;;;;;1.23;1.20;;;;;;;19.22;57.30;101538.63;5209019;28;20057;-79
2022/05/20 02:36:56;;;;;;;2.35;2.08;;;;;;;19.17;56.88;101538.88;5176429;28;20507;-78
2022/05/20 02:39:27;;;;;;;2.05;1.83;;;;;;;19.16;57.19;101530.03;5187837;28;20114;-78
2022/05/20 02:41:57;;;;;;;2.58;2.33;;;;;;;19.15;57.33;101525.66;5187976;28;20029;-78
2022/05/20 02:44:28;;;;;;;2.50;2.28;;;;;;;19.17;57.70;101528.25;5175818;28;20041;-78
2022/05/20 02:46:58;;;;;;;2.25;1.98;;;;;;;19.15;57.74;101525.66;5196074;28;20033;-78
2022/05/20 02:49:29;;;;;;;1.92;1.70;;;;;;;19.12;57.49;101523.16;5193808;28;20068;-78
2022/05/20 02:51:59;;;;;;;3.10;2.80;;;;;;;19.10;57.62;101527.69;5197092;28;20241;-78
2022/05/20 02:54:30;;;;;;;1.65;1.55;;;;;;;19.05;57.60;101529.69;5205939;28;20056;-79
2022/05/20 02:57:00;;;;;;;2.50;2.13;;;;;;;19.03;57.49;101532.44;5186090;28;20155;-79
2022/05/20 03:05:13;;;;;;;2.55;2.35;;;;;;;19.05;57.94;101534.16;5193770;28;20113;-78
2022/05/20 03:07:43;;;;;;;1.50;1.40;;;;;;;19.00;57.72;101523.75;5189370;28;20040;-78
2022/05/20 03:10:14;;;;;;;3.40;2.38;;;;;;;18.96;57.91;101525.72;5193694;28;20053;-78
2022/05/20 03:12:45;;;;;;;6.30;3.17;;;;;;;19.01;58.09;101525.47;5176878;28;20029;-78
2022/05/20 03:15:17;;;;;;;11.15;2.83;;;;;;;18.95;57.93;101534.63;5174913;28;20044;-78
2022/05/20 03:17:47;;;;;;;1.52;1.38;;;;;;;18.97;58.36;101526.56;5179136;28;20068;-78
2022/05/20 03:20:17;;;;;;;10.40;3.28;;;;;;;18.93;58.28;101522.34;5184402;28;20605;-78
2022/05/20 03:22:48;;;;;;;4.18;3.83;;;;;;;18.90;58.79;101515.34;5195993;28;20559;-78
2022/05/20 03:25:20;;;;;;;3.03;2.75;;;;;;;18.86;58.97;101509.34;5171825;28;20050;-78
2022/05/20 03:27:51;;;;;;;2.87;2.07;;;;;;;18.88;58.45;101510.09;5204688;28;20025;-78
2022/05/20 03:30:21;;;;;;;2.28;2.00;;;;;;;18.87;58.45;101508.41;5195194;28;20048;-78
2022/05/20 03:32:54;;;;;;;;;;;;;;;18.87;58.55;101515.50;5196361;28;20036;-78
2022/05/20 03:35:25;;;;;;;3.60;3.17;;;;;;;18.84;58.53;101511.19;5197034;28;20329;-78
2022/05/20 03:37:58;;;;;;;7.53;3.40;;;;;;;18.86;58.71;101509.34;5189394;28;20091;-79
2022/05/20 03:40:29;;;;;;;2.60;2.28;;;;;;;18.81;58.52;101511.34;5181523;28;20042;-79
2022/05/20 03:42:59;;;;;;;2.17;2.03;;;;;;;18.82;58.99;101505.09;5188470;28;20353;-78
2022/05/20 03:45:30;;;;;;;2.60;2.40;;;;;;;18.82;58.72;101505.09;5195172;28;20033;-79
2022/05/20 03:48:03;;;;;;;1.17;1.17;;;;;;;18.78;58.55;101511.50;5179738;28;20083;-79
2022/05/20 03:50:33;;;;;;;;;;;;;;;18.76;58.60;101502.75;5196184;28;20424;-79
2022/05/20 03:53:04;;;;;;;2.75;2.25;;;;;;;18.79;58.79;101513.22;5192381;28;19913;-79
2022/05/20 03:55:34;;;;;;;2.63;2.42;;;;;;;18.87;59.59;101521.69;5196023;28;20572;-79
2022/05/20 03:58:06;;;;;;;2.60;1.95;;;;;;;18.80;58.99;101522.91;5197086;28;20040;-79
2022/05/20 04:03:26;;;;;;;2.60;2.33;;;;;;;18.81;58.35;101521.13;5213674;28;20041;-79
2022/05/20 04:06:00;;;;;;;2.90;2.28;;;;;;;18.81;58.98;101521.97;5160859;28;20365;-79
2022/05/20 04:08:31;;;;;;;4.22;2.85;;;;;;;18.80;58.73;101508.75;5156678;28;20413;-79
2022/05/20 04:11:01;;;;;;;2.38;2.17;;;;;;;18.79;58.96;101502.59;5180818;28;20133;-79
2022/05/20 04:13:33;;;;;;;3.22;2.90;;;;;;;18.79;59.03;101502.59;5198768;28;20033;-79
2022/05/20 04:16:05;;;;;;;4.78;4.38;;;;;;;18.76;59.38;101502.75;5188246;28;20146;-79
2022/05/20 04:18:37;;;;;;;2.08;1.98;;;;;;;18.77;58.52;101501.81;5190035;28;20040;-79
2022/05/20 04:21:10;;;;;;;2.45;1.85;;;;;;;18.74;58.80;101498.44;5199616;28;20034;-79
2022/05/20 04:23:42;;;;;;;4.57;3.03;;;;;;;18.73;59.19;101500.22;5166955;28;20017;-79
2022/05/20 04:26:13;;;;;;;2.10;2.00;;;;;;;18.75;58.80;101502.81;5198102;28;20160;-79
2022/05/20 04:28:44;;;;;;;3.03;2.35;;;;;;;18.78;59.11;101505.31;5196719;28;20060;-79
2022/05/20 04:31:14;;;;;;;2.47;2.25;;;;;;;18.77;58.81;101504.47;5174031;28;20077;-79
2022/05/20 04:33:45;;;;;;;2.95;2.55;;;;;;;18.72;58.99;101512.66;5199584;28;20037;-79
2022/05/20 04:36:15;;;;;;;8.73;2.78;;;;;;;18.72;59.41;101506.47;5179203;28;20128;-79
2022/05/20 04:38:46;;;;;;;3.65;2.63;;;;;;;18.77;59.61;101514.22;5198161;28;20033;-79
2022/05/20 04:46:59;;;;;;;6.95;3.42;;;;;;;18.78;59.19;101514.16;5204813;28;20037;-78
2022/05/20 04:49:32;;;;;;;3.17;2.90;;;;;;;18.80;59.22;101506.09;5196476;28;20093;-81
2022/05/20 04:52:06;;;;;;;6.18;3.88;;;;;;;18.76;59.80;101513.38;5201511;28;20064;-80
2022/05/20 04:54:52;;;;;;;2.13;1.98;;;;;;;18.80;59.63;101506.94;5205444;28;20119;-79
2022/05/20 04:57:50;;;;;;;2.60;2.40;;;;;;;18.81;59.38;101499.84;5212541;28;20100;-79
2022/05/20 05:00:24;;;;;;;3.22;2.50;;;;;;;18.76;59.34;101497.41;5166217;28;20037;-79
2022/05/20 05:02:55;;;;;;;3.70;2.92;;;;;;;18.75;59.28;101490.38;5180096;28;20040;-79
2022/05/20 05:05:29;;;;;;;1.95;1.83;;;;;;;18.76;59.52;101492.09;5194695;28;20034;-80
2022/05/20 05:08:03;;;;;;;2.08;1.98;;;;;;;18.80;59.14;101487.50;5208108;28;20547;-81
2022/05/20 05:10:34;;;;;;;3.67;1.95;;;;;;;18.84;59.73;101479.28;5207094;28;20030;-79
2022/05/20 05:13:05;;;;;;;4.90;3.55;;;;;;;18.81;59.07;101473.28;5187104;28;20396;-79
2022/05/20 05:15:36;;;;;;;3.17;2.97;;;;;;;18.82;60.10;101475.00;5181606;28;20041;-79
2022/05/20 05:18:12;;;;;;;3.33;2.95;;;;;;;18.87;59.55;101472.97;5197485;28;20103;-79
2022/05/20 05:20:47;;;;;;;3.78;2.90;;;;;;;18.82;59.65;101467.88;5185254;28;20045;-79
2022/05/20 05:23:19;;;;;;;2.20;2.00;;;;;;;18.88;59.96;101474.69;5190771;28;20025;-80
2022/05/20 05:25:50;;;;;;;3.13;1.98;;;;;;;18.89;59.38;101471.09;5179037;28;20094;-80
2022/05/20 05:28:22;;;;;;;2.78;2.40;;;;;;;18.90;59.20;101467.50;5201251;28;20033;-80
2022/05/20 05:30:53;;;;;;;5.97;3.00;;;;;;;18.94;59.35;101471.75;5176754;28;20033;-79
2022/05/20 05:33:24;;;;;;;2.58;2.30;;;;;;;18.95;59.82;101454.00;5173492;28;20386;-79
2022/05/20 05:35:55;;;;;;;2.28;2.08;;;;;;;18.96;59.73;101448.59;5178568;28;20420;-80
2022/05/20 05:38:26;;;;;;;4.43;3.35;;;;;;;18.98;59.50;101454.72;5181641;28;20637;-80
2022/05/20 05:41:06;;;;;;;2.95;2.67;;;;;;;19.00;59.32;101451.97;5161516;28;20044;-79
2022/05/20 05:43:37;;;;;;;2.05;1.90;;;;;;;19.04;60.14;101448.22;5188598;28;20041;-80
2022/05/20 05:46:10;;;;;;;3.22;2.40;;;;;;;18.99;60.94;101434.28;5201482;28;20096;-80
2022/05/20 05:48:41;;;;;;;2.80;2.30;;;;;;;18.97;60.02;101433.50;5201110;28;20037;-80
2022/05/20 05:51:12;;;;;;;6.60;5.30;;;;;;;18.98;60.97;101435.22;5168570;28;20123;-79
2022/05/20 05:53:42;;;;;;;4.68;2.75;;;;;;;18.95;62.07;101433.56;5181130;28;20032;-80
2022/05/20 05:56:13;;;;;;;1.67;1.58;;;;;;;18.72;62.64;101430.25;5196213;28;20037;-80
2022/05/20 05:58:44;;;;;;;2.20;2.08;;;;;;;18.82;60.94;101428.00;5193638;28;20037;-79
2022/05/20 06:01:17;;;;;;;2.13;1.92;;;;;;;18.92;60.22;101427.53;5181793;28;20049;-80
2022/05/20 06:03:51;;;;;;;1.70;1.08;;;;;;;18.94;60.05;101421.22;5181472;28;20041;-79
2022/05/20 06:06:21;;;;;;;5.80;3.72;;;;;;;18.98;59.63;101432.56;5161548;28;20065;-80
2022/05/20 06:08:52;;;;;;;3.67;2.70;;;;;;;19.00;60.26;101425.38;5200983;28;20059;-79
2022/05/20 06:11:22;;;;;;;3.05;2.85;;;;;;;19.03;59.98;101417.25;5173451;28;20033;-79
2022/05/20 06:13:54;;;;;;;3.58;3.00;;;;;;;19.10;60.19;101415.09;5196570;28;20037;-79
2022/05/20 06:16:24;;;;;;;5.38;2.13;;;;;;;19.12;60.99;101418.56;5194219;28;20026;-80
2022/05/20 06:18:54;;;;;;;2.58;2.38;;;;;;;19.15;59.99;101423.72;5193210;28;20040;-80
2022/05/20 06:21:26;;;;;;;4.57;3.20;;;;;;;19.12;61.50;101423.88;5171950;28;20030;-79
2022/05/20 06:23:57;;;;;;;2.40;2.17;;;;;;;19.22;59.92;101414.47;5192067;28;20562;-80
2022/05/20 06:26:31;;;;;;;3.30;2.33;;;;;;;19.31;60.45;101403.34;5176952;28;20025;-79
2022/05/20 06:29:05;;;;;;;4.28;3.83;;;;;;;19.36;59.93;101408.44;5179110;28;20175;-81
2022/05/20 06:31:36;;;;;;;2.28;1.92;;;;;;;19.38;59.92;101411.84;5200960;28;20476;-80
2022/05/20 06:34:06;;;;;;;3.00;2.63;;;;;;;19.44;60.45;101408.88;5176086;28;20033;-80
2022/05/20 06:42:16;;;;;;;2.67;2.47;;;;;;;19.52;60.47;101421.75;5193861;28;20025;-81
2022/05/20 06:44:46;;;;;;;6.30;3.92;;;;;;;19.55;60.91;101426.06;5219140;28;20057;-80
2022/05/20 06:47:17;;;;;;;2.75;2.55;;;;;;;19.60;60.30;101424.03;5203753;28;20041;-80
2022/05/20 06:49:47;;;;;;;2.28;2.10;;;;;;;19.64;60.24;101417.56;5157866;28;20657;-81
2022/05/20 06:52:18;;;;;;;3.92;2.75;;;;;;;19.75;60.50;101409.88;5176782;28;20030;-81
2022/05/20 06:54:48;;;;;;;2.95;2.20;;;;;;;19.80;60.00;101406.97;5185786;28;20041;-81
2022/05/20 06:57:19;;;;;;;6.72;3.35;;;;;;;19.85;60.09;101401.41;5163681;28;20045;-80
2022/05/20 06:59:51;;;;;;;7.07;2.95;;;;;;;19.88;59.89;101403.88;5197149;28;20045;-80
2022/05/20 07:02:22;;;;;;;4.35;3.15;;;;;;;19.89;60.24;101398.50;5196887;28;20030;-80
2022/05/20 07:04:52;;;;;;;3.30;2.92;;;;;;;19.97;59.93;101387.41;5187940;28;20273;-81
2022/05/20 07:07:23;;;;;;;1.90;1.80;;;;;;;19.95;61.77;101387.50;5180832;28;20706;-80
2022/05/20 07:09:54;;;;;;;4.25;2.53;;;;;;;20.08;60.32;101385.00;5181122;28;20151;-80
2022/05/20 07:12:25;;;;;;;6.00;2.60;;;;;;;20.18;60.14;101381.81;5171324;28;20054;-79
2022/05/20 07:14:55;;;;;;;4.45;3.40;;;;;;;20.19;59.81;101378.22;5175150;28;20049;-78
2022/05/20 07:17:27;;;;;;;1.23;1.17;;;;;;;20.20;60.06;101371.94;5193291;28;20488;-78
2022/05/20 07:19:57;;;;;;;3.65;2.20;;;;;;;20.23;59.51;101375.28;5171325;28;20121;-79
2022/05/20 07:22:28;;;;;;;3.47;1.55;;;;;;;20.28;60.17;101373.19;5175541;28;20045;-78
2022/05/20 07:24:58;;;;;;;7.05;3.28;;;;;;;20.41;59.98;101367.16;5185605;28;20048;-80
2022/05/20 07:27:30;;;;;;;5.28;3.05;;;;;;;20.37;61.52;101349.63;5173774;28;20033;-79
2022/05/20 07:30:14;;;;;;;13.68;4.07;;;;;;;20.41;60.71;101356.50;5213024;28;20044;-80
2022/05/20 07:32:44;;;;;;;4.15;3.05;;;;;;;20.40;60.96;101352.13;5181211;28;20037;-80
2022/05/20 07:35:16;;;;;;;2.70;2.45;;;;;;;20.47;61.88;101344.59;5186257;28;20157;-79
2022/05/20 07:37:48;;;;;;;4.65;2.55;;;;;;;20.50;61.29;101349.75;5193685;28;20724;-80
2022/05/20 07:40:20;;;;;;;2.15;2.03;;;;;;;20.55;60.51;101345.00;5160900;28;20124;-80
2022/05/20 07:42:51;;;;;;;4.05;3.05;;;;;;;20.56;60.97;101341.41;5195172;28;20037;-80
2022/05/20 07:45:21;;;;;;;3.45;2.30;;;;;;;20.59;60.01;101338.56;5192658;28;20049;-80
2022/05/20 07:47:52;;;;;;;8.98;4.63;;;;;;;20.63;60.09;101332.06;5193435;28;20261;-80
2022/05/20 07:50:25;;;;;;;4.57;3.40;;;;;;;20.65;60.42;101332.84;5164143;28;20045;-79
2022/05/20 07:55:50;;;;;;;1.80;1.70;;;;;;;20.68;61.09;101334.47;5194251;28;20033;-79
2022/05/20 07:58:28;;;;;;;2.72;2.53;;;;;;;20.65;62.60;101342.66;5182573;28;20087;-79
2022/05/20 08:01:01;;;;;;;6.60;3.67;;;;;;;20.75;61.50;101344.72;5194164;28;20121;-78
2022/05/20 08:06:41;;;;;;;3.22;2.88;;;;;;;20.82;62.02;101344.34;5138698;28;20053;-79
2022/05/20 08:09:12;;;;;;;9.57;3.42;;;;;;;20.83;61.74;101332.72;5190065;28;20805;-79
2022/05/20 08:11:43;;;;;;;7.03;1.65;;;;;;;20.91;61.48;101323.28;5177537;28;20304;-79
2022/05/20 08:14:16;;;;;;;4.88;1.77;;;;;;;20.92;63.08;101316.16;5185543;28;20045;-80
2022/05/20 08:16:47;;;;;;;1.13;1.02;;;;;;;20.91;62.30;101307.28;5201047;28;20852;-79
2022/05/20 08:19:18;;;;;;;3.65;2.22;;;;;;;21.06;61.39;101307.31;5217540;28;20120;-80
2022/05/20 08:21:48;;;;;;;1.60;1.50;;;;;;;21.12;62.48;101306.06;5201900;28;20041;-80
2022/05/20 08:24:19;;;;;;;1.60;1.50;;;;;;;21.09;62.82;101303.59;5197472;28;20099;-79
2022/05/20 08:26:50;;;;;;;7.07;4.15;;;;;;;21.23;62.59;101303.56;5175063;28;20045;-79
2022/05/20 08:29:20;;;;;;;2.53;2.33;;;;;;;21.20;63.85;101301.09;5175436;28;20059;-80
2022/05/20 08:31:51;;;;;;;7.47;1.77;;;;;;;21.26;64.02;101299.84;5181497;28;20029;-80
2022/05/20 08:34:21;;;;;;;2.00;1.58;;;;;;;21.33;62.89;101301.19;5181219;28;20036;-80
2022/05/20 08:36:52;;;;;;;4.18;3.42;;;;;;;21.39;63.84;101308.81;5194061;28;20037;-80
2022/05/20 08:39:22;;;;;;;4.20;2.70;;;;;;;21.44;63.47;101293.34;5218430;28;20041;-80
2022/05/20 08:41:54;;;;;;;2.55;1.98;;;;;;;21.50;63.39;101292.09;5214327;28;20025;-81
2022/05/20 08:44:24;;;;;;;4.47;2.53;;;;;;;21.56;63.24;101281.03;5212092;28;20416;-81
2022/05/20 08:47:22;;;;;;;4.78;3.22;;;;;;;21.62;63.04;101274.47;5181909;28;20045;-80
2022/05/20 08:49:59;;;;;;;7.85;2.58;;;;;;;21.64;63.04;101268.06;5219962;28;20061;-81
2022/05/20 08:52:31;;;;;;;4.47;3.40;;;;;;;21.80;62.31;101278.63;5209035;28;20228;-79
2022/05/20 08:55:04;;;;;;;3.22;2.90;;;;;;;21.75;64.01;101277.19;5197101;28;20203;-79
2022/05/20 08:57:35;;;;;;;2.90;2.28;;;;;;;21.86;62.25;101261.28;5175647;28;20573;-79
2022/05/20 09:00:16;;;;;;;3.22;2.85;;;;;;;21.89;62.54;101258.44;5171879;28;20049;-82
2022/05/20 09:02:47;;;;;;;5.35;2.67;;;;;;;21.91;62.25;101269.00;5197653;28;20460;-80
2022/05/20 09:05:19;;;;;;;4.18;2.67;;;;;;;21.99;62.05;101256.00;5161482;28;20034;-80
2022/05/20 09:07:56;;;;;;;2.15;1.90;;;;;;;22.04;62.44;101247.66;5185726;28;20036;-80
2022/05/20 09:10:30;;;;;;;4.25;3.42;;;;;;;22.08;62.87;101247.38;5199016;28;20121;-80
2022/05/20 09:16:23;;;;;;;3.58;3.20;;;;;;;22.24;62.77;101236.50;5188526;28;20088;-80
2022/05/20 09:19:14;;;;;;;4.35;2.72;;;;;;;22.28;63.60;101234.47;5176558;28;20037;-80
2022/05/20 09:22:00;;;;;;;4.47;3.47;;;;;;;22.29;64.96;101234.34;5195779;28;20310;-80
2022/05/20 09:24:42;;;;;;;6.97;4.05;;;;;;;22.38;63.22;101230.22;5165046;28;20044;-80
2022/05/20 09:27:19;;;;;;;3.58;3.25;;;;;;;22.45;63.41;101217.28;5179757;28;20026;-81
2022/05/20 09:30:09;;;;;;;3.55;2.95;;;;;;;22.51;62.85;101214.22;5191134;28;20042;-80
2022/05/20 09:32:43;;;;;;;2.65;2.15;;;;;;;22.47;63.10;101212.69;5173665;28;20025;-80
2022/05/20 09:35:22;;;;;;;5.68;3.55;;;;;;;22.46;63.47;101205.63;5175337;28;20046;-81
2022/05/20 09:37:53;;;;;;;3.05;2.03;;;;;;;22.55;62.17;101202.31;5205156;28;20029;-80
2022/05/20 09:40:31;;;;;;;3.30;3.00;;;;;;;22.55;62.60;101196.13;5201853;28;20040;-80
2022/05/20 09:43:21;;;;;;;9.43;5.18;;;;;;;22.53;63.02;101200.72;5197639;28;20035;-80
2022/05/20 09:45:52;;;;;;;4.30;3.20;;;;;;;22.51;63.51;101192.81;5181702;28;20424;-80
2022/05/20 09:48:38;;;;;;;6.38;4.38;;;;;;;22.59;62.27;101187.78;5173257;28;20025;-81
2022/05/20 09:51:21;;;;;;;5.07;2.95;;;;;;;22.67;62.03;101181.03;5195972;28;20044;-80
2022/05/20 09:54:03;;;;;;;;;;;;;;;22.62;62.93;101179.53;5180851;28;20108;-81
2022/05/20 09:56:43;;;;;;;2.92;2.22;;;;;;;22.64;62.97;101172.25;5197125;28;19909;-81
2022/05/20 09:59:32;;;;;;;4.15;1.45;;;;;;;22.64;62.86;101180.28;5196346;28;20132;-81
2022/05/20 10:02:11;;;;;;;2.55;2.35;;;;;;;22.74;62.11;101171.59;5195792;28;20285;-81
2022/05/20 10:04:57;;;;;;;3.50;3.20;;;;;;;22.84;63.03;101150.38;5209111;28;20033;-78
2022/05/20 10:08:12;;;;;;;3.10;2.80;;;;;;;22.78;63.65;101130.28;5192101;28;20591;-79
2022/05/20 10:10:43;;;;;;;3.03;2.10;;;;;;;22.90;63.09;101124.06;5183414;28;20049;-80
2022/05/20 10:13:32;;;;;;;3.50;2.85;;;;;;;22.90;62.74;101108.00;5178129;28;20359;-79
2022/05/20 10:16:22;;;;;;;3.58;3.13;;;;;;;23.08;63.02;101089.72;5195048;28;20701;-80
2022/05/20 10:19:33;;;;;;;26.85;4.55;;;;;;;23.01;64.08;101076.94;5194834;28;20307;-78
2022/05/20 10:22:19;;;;;;;4.22;3.42;;;;;;;23.04;63.98;101074.00;5197091;28;20041;-79
2022/05/20 10:25:17;;;;;;;2.50;1.88;;;;;;;23.17;63.32;101072.13;5190312;28;20052;-80
2022/05/20 10:34:53;;;;;;;4.30;2.38;;;;;;;23.24;62.35;101046.66;5175869;28;20061;-78
2022/05/20 10:37:39;;;;;;;1.83;1.70;;;;;;;23.29;63.12;101035.59;5173735;28;20041;-79
2022/05/20 10:40:28;;;;;;;1.50;1.40;;;;;;;23.35;62.00;101042.28;5165136;28;20132;-81
2022/05/20 10:43:24;;;;;;;2.75;2.55;;;;;;;23.48;62.15;101037.72;5190656;28;20550;-79
2022/05/20 10:49:17;;;;;;;2.47;1.85;;;;;;;23.36;63.34;101031.47;5195035;28;20040;-78
2022/05/20 10:52:20;;;;;;;1.65;1.55;;;;;;;23.38;64.40;101020.63;5197062;28;20037;-79
2022/05/20 10:55:10;;;;;;;2.22;2.13;;;;;;;23.46;63.36;101010.19;5196406;28;20095;-79
2022/05/20 10:58:08;;;;;;;6.57;2.90;;;;;;;23.46;63.43;101010.19;5193621;28;20033;-80
2022/05/20 11:00:52;;;;;;;1.58;1.48;;;;;;;23.52;62.78;100998.16;5195121;28;20048;-81
2022/05/20 11:03:35;;;;;;;2.30;1.80;;;;;;;23.55;62.74;100993.41;5196928;28;20484;-79
2022/05/20 11:06:25;;;;;;;2.13;1.67;;;;;;;23.57;63.67;100986.13;5190995;28;20091;-78
2022/05/20 11:09:25;;;;;;;3.13;1.48;;;;;;;23.68;63.66;100971.00;5175290;28;20047;-79
2022/05/20 11:12:07;;;;;;;3.30;2.55;;;;;;;23.72;62.88;100959.09;5188038;28;20060;-80
2022/05/20 11:14:43;;;;;;;1.30;1.25;;;;;;;23.78;63.03;100950.56;5183684;28;20412;-80
2022/05/20 11:17:56;;;;;;;1.15;1.05;;;;;;;23.85;62.95;100943.72;5175103;28;20525;-81
2022/05/20 11:21:05;;;;;;;1.43;1.33;;;;;;;24.01;62.83;100927.31;5184413;28;20131;-81
2022/05/20 11:23:39;;;;;;;1.38;1.25;;;;;;;24.08;62.12;100919.66;5201859;28;20045;-80
2022/05/20 11:26:57;;;;;;;2.72;2.53;;;;;;;24.21;61.73;100903.41;5188944;28;20041;-81
2022/05/20 11:29:36;;;;;;;3.28;2.63;;;;;;;24.30;61.50;100889.22;5124957;28;20072;-80
2022/05/20 11:32:11;;;;;;;1.27;1.17;;;;;;;24.35;61.57;100884.34;5160618;28;20041;-79
2022/05/20 11:35:01;;;;;;;3.28;1.48;;;;;;;24.38;61.98;100875.19;5168970;28;20057;-82
2022/05/20 11:37:41;;;;;;;2.70;1.52;;;;;;;24.47;61.37;100858.34;5194869;28;20132;-81
2022/05/20 11:40:35;;;;;;;2.10;1.90;;;;;;;24.54;61.59;100831.00;5183789;28;20553;-79
2022/05/20 11:43:34;;;;;;;1.63;1.00;;;;;;;24.61;61.90;100818.75;5199873;28;20033;-78
2022/05/20 11:46:43;;;;;;;2.28;1.33;;;;;;;24.72;61.14;100807.13;5194386;28;20540;-77
2022/05/20 11:49:41;;;;;;;1.15;1.02;;;;;;;24.84;61.11;100798.03;5193908;28;20167;-79
2022/05/20 11:52:38;;;;;;;1.10;0.95;;;;;;;24.89;61.13;100787.75;5189878;28;20698;-79
2022/05/20 11:55:23;;;;;;;1.77;1.67;;;;;;;24.96;60.01;100777.34;5173017;28;20038;-80
2022/05/20 11:58:17;;;;;;;1.50;1.27;;;;;;;25.00;60.21;100773.38;5197803;28;20109;-80
2022/05/20 12:00:49;;;;;;;1.30;1.20;;;;;;;24.91;59.59;100752.75;5198164;28;20038;-80
2022/05/20 12:03:26;;;;;;;1.13;1.05;;;;;;;24.93;59.91;100753.44;5194947;28;20033;-79
2022/05/20 12:06:00;;;;;;;0.90;0.90;;;;;;;24.99;59.59;100766.34;5196621;28;20030;-79
2022/05/20 12:08:46;;;;;;;1.00;0.82;;;;;;;25.04;59.20;100780.19;5217546;28;20060;-80
2022/05/20 12:11:31;;;;;;;0.55;0.55;;;;;;;24.89;59.77;100789.59;5183589;28;20547;-80
2022/05/20 12:14:10;;;;;;;0.50;0.50;;;;;;;24.96;59.77;100801.50;5199482;28;20541;-79
2022/05/20 12:17:00;;;;;;;1.17;1.15;;;;;;;24.91;59.67;100818.00;5211653;28;20242;-78
2022/05/20 12:26:39;;;;;;;0.63;0.60;;;;;;;24.82;61.60;100830.38;5174318;28;20050;-79
2022/05/20 12:29:34;;;;;;;0.73;0.73;;;;;;;24.83;62.03;100842.78;5201690;28;20071;-79
2022/05/20 12:32:17;;;;;;;1.45;1.35;;;;;;;24.77;62.09;100853.22;5201117;28;20492;-80
2022/05/20 12:34:55;;;;;;;1.23;1.15;;;;;;;24.74;62.08;100848.97;5176783;28;20524;-79
2022/05/20 12:37:41;;;;;;;0.85;0.85;;;;;;;24.73;61.57;100846.41;5218829;28;20021;-80
2022/05/20 12:40:27;;;;;;;1.25;0.85;;;;;;;24.74;61.53;100832.88;5169299;28;20040;-80
2022/05/20 12:43:04;;;;;;;1.20;1.10;;;;;;;24.72;61.16;100805.31;5201668;28;20326;-79
2022/05/20 12:45:41;;;;;;;1.42;1.35;;;;;;;24.69;60.98;100792.16;5226834;28;20037;-80
2022/05/20 12:48:11;;;;;;;1.77;1.42;;;;;;;24.64;61.27;100823.88;5182175;28;20061;-79
2022/05/20 12:50:42;;;;;;;2.08;1.25;;;;;;;24.57;61.67;100809.28;5181792;28;20062;-79
2022/05/20 12:53:13;;;;;;;1.50;1.38;;;;;;;24.56;61.43;100788.81;5189662;28;20061;-80
2022/05/20 12:55:45;;;;;;;1.77;1.27;;;;;;;24.53;62.25;100808.69;5190430;28;20539;-79